sensor_id;sensor_type;location;lat;lon;timestamp;pressure;altitude;pressure_sealevel;temperature;humidity
30730;BME280;17476;48.458;7.928;2022-07-06T00:01:51;100515.22;;;19.75;58.39
30730;BME280;17476;48.458;7.928;2022-07-06T00:04:18;100516.25;;;19.80;58.23
30730;BME280;17476;48.458;7.928;2022-07-06T00:06:44;100515.63;;;19.85;58.35
30730;BME280;17476;48.458;7.928;2022-07-06T00:09:10;100513.34;;;19.88;58.17
30730;BME280;17476;48.458;7.928;2022-07-06T00:11:36;100513.78;;;19.85;58.30
30730;BME280;17476;48.458;7.928;2022-07-06T00:14:03;100523.00;;;19.70;59.60
30730;BME280;17476;48.458;7.928;2022-07-06T00:16:30;100513.63;;;19.67;58.80
30730;BME280;17476;48.458;7.928;2022-07-06T00:18:56;100516.06;;;19.69;59.53
30730;BME280;17476;48.458;7.928;2022-07-06T00:21:22;100521.56;;;19.74;58.83
30730;BME280;17476;48.458;7.928;2022-07-06T00:23:48;100519.94;;;19.73;58.80
30730;BME280;17476;48.458;7.928;2022-07-06T00:26:14;100516.50;;;19.66;59.01
30730;BME280;17476;48.458;7.928;2022-07-06T00:28:40;100509.59;;;19.58;58.77
30730;BME280;17476;48.458;7.928;2022-07-06T00:31:06;100519.97;;;19.46;59.28
30730;BME280;17476;48.458;7.928;2022-07-06T00:33:32;100520.81;;;19.33;59.60
30730;BME280;17476;48.458;7.928;2022-07-06T00:35:58;100527.38;;;19.18;59.57
30730;BME280;17476;48.458;7.928;2022-07-06T00:38:24;100533.06;;;19.08;60.08
30730;BME280;17476;48.458;7.928;2022-07-06T00:40:50;100533.06;;;19.15;59.90
30730;BME280;17476;48.458;7.928;2022-07-06T00:43:15;100536.53;;;19.15;59.75
30730;BME280;17476;48.458;7.928;2022-07-06T00:45:41;100536.75;;;19.07;61.20
30730;BME280;17476;48.458;7.928;2022-07-06T00:48:09;100540.63;;;19.04;60.60
30730;BME280;17476;48.458;7.928;2022-07-06T00:50:36;100543.88;;;19.13;60.66
30730;BME280;17476;48.458;7.928;2022-07-06T00:53:06;100539.19;;;19.08;60.61
30730;BME280;17476;48.458;7.928;2022-07-06T00:55:35;100539.41;;;19.07;60.00
30730;BME280;17476;48.458;7.928;2022-07-06T00:58:04;100538.38;;;19.08;60.44
30730;BME280;17476;48.458;7.928;2022-07-06T01:00:30;100539.19;;;19.15;59.77
30730;BME280;17476;48.458;7.928;2022-07-06T01:02:57;100549.41;;;19.18;59.78
30730;BME280;17476;48.458;7.928;2022-07-06T01:05:23;100542.47;;;19.17;59.95
30730;BME280;17476;48.458;7.928;2022-07-06T01:07:51;100536.75;;;19.20;59.39
30730;BME280;17476;48.458;7.928;2022-07-06T01:10:19;100533.88;;;18.95;60.18
30730;BME280;17476;48.458;7.928;2022-07-06T01:12:47;100538.56;;;18.93;60.31
30730;BME280;17476;48.458;7.928;2022-07-06T01:15:24;100540.81;;;18.96;60.29
30730;BME280;17476;48.458;7.928;2022-07-06T01:17:50;100540.00;;;18.89;60.60
30730;BME280;17476;48.458;7.928;2022-07-06T01:20:22;100545.94;;;18.91;60.48
30730;BME280;17476;48.458;7.928;2022-07-06T01:22:50;100544.91;;;18.86;60.53
30730;BME280;17476;48.458;7.928;2022-07-06T01:25:17;100537.34;;;18.82;60.72
30730;BME280;17476;48.458;7.928;2022-07-06T01:27:43;100539.81;;;18.84;61.30
30730;BME280;17476;48.458;7.928;2022-07-06T01:30:13;100540.19;;;18.88;61.00
30730;BME280;17476;48.458;7.928;2022-07-06T01:32:40;100536.94;;;18.92;60.78
30730;BME280;17476;48.458;7.928;2022-07-06T01:35:09;100544.09;;;18.92;61.02
30730;BME280;17476;48.458;7.928;2022-07-06T01:37:36;100536.13;;;18.85;61.16
30730;BME280;17476;48.458;7.928;2022-07-06T01:40:08;100536.34;;;18.84;61.07
30730;BME280;17476;48.458;7.928;2022-07-06T01:42:34;100532.22;;;18.68;61.92
30730;BME280;17476;48.458;7.928;2022-07-06T01:45:03;100535.50;;;18.70;61.92
30730;BME280;17476;48.458;7.928;2022-07-06T01:47:29;100535.25;;;18.58;62.67
30730;BME280;17476;48.458;7.928;2022-07-06T01:49:59;100538.03;;;18.30;63.69
30730;BME280;17476;48.458;7.928;2022-07-06T01:52:26;100539.47;;;18.33;62.93
30730;BME280;17476;48.458;7.928;2022-07-06T01:54:52;100541.88;;;18.21;64.31
30730;BME280;17476;48.458;7.928;2022-07-06T01:57:18;100537.47;;;17.93;65.45
30730;BME280;17476;48.458;7.928;2022-07-06T01:59:43;100546.44;;;17.92;64.84
30730;BME280;17476;48.458;7.928;2022-07-06T02:02:09;100544.41;;;17.94;64.65
30730;BME280;17476;48.458;7.928;2022-07-06T02:04:36;100545.88;;;18.04;64.76
30730;BME280;17476;48.458;7.928;2022-07-06T02:07:02;100541.25;;;18.19;63.80
30730;BME280;17476;48.458;7.928;2022-07-06T02:09:28;100538.41;;;18.27;63.52
30730;BME280;17476;48.458;7.928;2022-07-06T02:11:54;100543.34;;;18.30;63.36
30730;BME280;17476;48.458;7.928;2022-07-06T02:14:20;100549.66;;;18.29;63.46
30730;BME280;17476;48.458;7.928;2022-07-06T02:16:45;100552.31;;;18.29;63.33
30730;BME280;17476;48.458;7.928;2022-07-06T02:19:11;100547.38;;;18.19;63.93
30730;BME280;17476;48.458;7.928;2022-07-06T02:21:37;100543.09;;;18.18;63.85
30730;BME280;17476;48.458;7.928;2022-07-06T02:24:04;100553.06;;;18.16;64.12
30730;BME280;17476;48.458;7.928;2022-07-06T02:26:30;100545.41;;;17.93;65.08
30730;BME280;17476;48.458;7.928;2022-07-06T02:28:55;100542.53;;;17.82;65.36
30730;BME280;17476;48.458;7.928;2022-07-06T02:31:21;100542.56;;;17.88;65.10
30730;BME280;17476;48.458;7.928;2022-07-06T02:33:47;100549.53;;;17.96;64.88
30730;BME280;17476;48.458;7.928;2022-07-06T02:36:13;100556.28;;;18.05;64.43
30730;BME280;17476;48.458;7.928;2022-07-06T02:38:39;100547.06;;;18.01;64.16
30730;BME280;17476;48.458;7.928;2022-07-06T02:41:05;100551.97;;;17.97;nan
30730;BME280;17476;48.458;7.928;2022-07-06T02:43:31;100552.16;;;17.96;64.21
30730;BME280;17476;48.458;7.928;2022-07-06T02:45:58;100557.19;;;17.56;66.47
30730;BME280;17476;48.458;7.928;2022-07-06T02:48:24;100554.81;;;17.61;65.76
30730;BME280;17476;48.458;7.928;2022-07-06T02:50:50;100562.25;;;17.51;65.84
30730;BME280;17476;48.458;7.928;2022-07-06T02:53:18;100564.13;;;17.57;65.94
30730;BME280;17476;48.458;7.928;2022-07-06T02:55:45;100575.56;;;17.64;65.41
30730;BME280;17476;48.458;7.928;2022-07-06T02:58:11;100570.34;;;17.71;65.54
30730;BME280;17476;48.458;7.928;2022-07-06T03:00:36;100575.81;;;17.69;65.68
30730;BME280;17476;48.458;7.928;2022-07-06T03:03:03;100577.97;;;17.59;65.74
30730;BME280;17476;48.458;7.928;2022-07-06T03:05:28;100571.63;;;17.54;66.01
30730;BME280;17476;48.458;7.928;2022-07-06T03:07:54;100580.41;;;17.61;65.98
30730;BME280;17476;48.458;7.928;2022-07-06T03:10:20;100577.00;;;17.67;65.55
30730;BME280;17476;48.458;7.928;2022-07-06T03:12:46;100574.78;;;17.70;65.55
30730;BME280;17476;48.458;7.928;2022-07-06T03:15:12;100583.97;;;17.74;65.12
30730;BME280;17476;48.458;7.928;2022-07-06T03:17:38;100576.25;;;17.73;64.89
30730;BME280;17476;48.458;7.928;2022-07-06T03:20:05;100582.19;;;17.75;64.92
30730;BME280;17476;48.458;7.928;2022-07-06T03:22:31;100581.75;;;17.71;65.40
30730;BME280;17476;48.458;7.928;2022-07-06T03:24:57;100584.63;;;17.49;66.04
30730;BME280;17476;48.458;7.928;2022-07-06T03:27:23;100584.63;;;17.49;66.13
30730;BME280;17476;48.458;7.928;2022-07-06T03:29:49;100576.91;;;17.54;66.69
30730;BME280;17476;48.458;7.928;2022-07-06T03:32:15;100580.59;;;17.59;66.53
30730;BME280;17476;48.458;7.928;2022-07-06T03:34:41;100584.72;;;17.62;66.75
30730;BME280;17476;48.458;7.928;2022-07-06T03:37:07;100583.66;;;17.56;66.65
30730;BME280;17476;48.458;7.928;2022-07-06T03:39:33;100588.75;;;17.58;66.57
30730;BME280;17476;48.458;7.928;2022-07-06T03:41:59;100586.44;;;17.48;67.15
30730;BME280;17476;48.458;7.928;2022-07-06T03:44:25;100591.09;;;17.46;67.09
30730;BME280;17476;48.458;7.928;2022-07-06T03:46:51;100593.28;;;17.36;68.72
30730;BME280;17476;48.458;7.928;2022-07-06T03:49:20;100589.56;;;17.30;68.35
30730;BME280;17476;48.458;7.928;2022-07-06T03:51:45;100596.94;;;17.13;69.97
30730;BME280;17476;48.458;7.928;2022-07-06T03:54:11;100592.38;;;17.01;70.39
30730;BME280;17476;48.458;7.928;2022-07-06T03:56:37;100579.53;;;16.76;71.24
30730;BME280;17476;48.458;7.928;2022-07-06T03:59:04;100586.38;;;16.92;70.30
30730;BME280;17476;48.458;7.928;2022-07-06T04:01:30;100584.66;;;17.06;69.68
30730;BME280;17476;48.458;7.928;2022-07-06T04:03:56;100590.72;;;17.21;68.88
30730;BME280;17476;48.458;7.928;2022-07-06T04:06:22;100581.63;;;17.30;68.83
30730;BME280;17476;48.458;7.928;2022-07-06T04:08:48;100581.47;;;17.38;68.05
30730;BME280;17476;48.458;7.928;2022-07-06T04:11:14;100585.00;;;17.45;67.58
30730;BME280;17476;48.458;7.928;2022-07-06T04:13:40;100585.00;;;17.45;66.98
30730;BME280;17476;48.458;7.928;2022-07-06T04:16:07;100587.25;;;17.49;67.36
30730;BME280;17476;48.458;7.928;2022-07-06T04:18:33;100590.13;;;17.54;67.07
30730;BME280;17476;48.458;7.928;2022-07-06T04:20:59;100590.16;;;17.60;66.78
30730;BME280;17476;48.458;7.928;2022-07-06T04:23:25;100591.03;;;17.67;66.56
30730;BME280;17476;48.458;7.928;2022-07-06T04:25:51;100599.97;;;17.66;66.30
30730;BME280;17476;48.458;7.928;2022-07-06T04:28:17;100603.84;;;17.64;66.37
30730;BME280;17476;48.458;7.928;2022-07-06T04:30:43;100596.88;;;17.56;66.35
30730;BME280;17476;48.458;7.928;2022-07-06T04:33:09;100603.78;;;17.57;66.49
30730;BME280;17476;48.458;7.928;2022-07-06T04:35:35;100606.50;;;17.64;66.27
30730;BME280;17476;48.458;7.928;2022-07-06T04:38:01;100607.91;;;17.66;66.27
30730;BME280;17476;48.458;7.928;2022-07-06T04:40:27;100611.78;;;17.64;65.97
30730;BME280;17476;48.458;7.928;2022-07-06T04:42:53;100609.81;;;17.72;65.89
30730;BME280;17476;48.458;7.928;2022-07-06T04:45:19;100607.03;;;17.81;65.45
30730;BME280;17476;48.458;7.928;2022-07-06T04:47:45;100620.09;;;17.82;65.54
30730;BME280;17476;48.458;7.928;2022-07-06T04:50:11;100618.28;;;17.89;65.76
30730;BME280;17476;48.458;7.928;2022-07-06T04:52:38;100614.22;;;17.93;65.91
30730;BME280;17476;48.458;7.928;2022-07-06T04:55:04;100606.97;;;18.02;65.78
30730;BME280;17476;48.458;7.928;2022-07-06T04:57:32;100610.25;;;18.11;65.40
30730;BME280;17476;48.458;7.928;2022-07-06T04:59:58;100613.72;;;18.11;65.54
30730;BME280;17476;48.458;7.928;2022-07-06T05:02:24;100614.78;;;18.17;65.59
30730;BME280;17476;48.458;7.928;2022-07-06T05:04:50;100615.81;;;18.22;65.30
30730;BME280;17476;48.458;7.928;2022-07-06T05:07:16;100619.59;;;18.07;66.59
30730;BME280;17476;48.458;7.928;2022-07-06T05:09:42;100619.84;;;18.12;66.20
30730;BME280;17476;48.458;7.928;2022-07-06T05:12:09;100625.00;;;18.26;65.71
30730;BME280;17476;48.458;7.928;2022-07-06T05:14:35;100625.03;;;18.40;65.80
30730;BME280;17476;48.458;7.928;2022-07-06T05:17:02;100630.78;;;18.43;65.39
30730;BME280;17476;48.458;7.928;2022-07-06T05:19:28;100626.53;;;18.55;64.60
30730;BME280;17476;48.458;7.928;2022-07-06T05:21:55;100625.59;;;18.70;63.41
30730;BME280;17476;48.458;7.928;2022-07-06T05:24:21;100614.81;;;18.78;63.47
30730;BME280;17476;48.458;7.928;2022-07-06T05:26:47;100621.97;;;18.84;63.07
30730;BME280;17476;48.458;7.928;2022-07-06T05:29:13;100617.06;;;18.94;63.17
30730;BME280;17476;48.458;7.928;2022-07-06T05:31:39;100620.16;;;19.04;62.28
30730;BME280;17476;48.458;7.928;2022-07-06T05:34:05;100624.84;;;19.16;62.18
30730;BME280;17476;48.458;7.928;2022-07-06T05:36:31;100626.09;;;19.33;61.92
30730;BME280;17476;48.458;7.928;2022-07-06T05:38:57;100625.28;;;19.52;61.38
30730;BME280;17476;48.458;7.928;2022-07-06T05:41:22;100624.47;;;19.72;60.47
30730;BME280;17476;48.458;7.928;2022-07-06T05:43:48;100624.22;;;19.93;60.03
30730;BME280;17476;48.458;7.928;2022-07-06T05:46:14;100618.22;;;20.17;59.07
30730;BME280;17476;48.458;7.928;2022-07-06T05:48:40;100628.59;;;20.39;58.32
30730;BME280;17476;48.458;7.928;2022-07-06T05:51:25;100630.16;;;20.60;58.00
30730;BME280;17476;48.458;7.928;2022-07-06T05:53:51;100623.78;;;20.67;58.02
30730;BME280;17476;48.458;7.928;2022-07-06T05:56:17;100621.16;;;20.92;57.95
30730;BME280;17476;48.458;7.928;2022-07-06T05:58:43;100622.84;;;21.12;56.51
30730;BME280;17476;48.458;7.928;2022-07-06T06:01:09;100631.16;;;21.29;56.69
30730;BME280;17476;48.458;7.928;2022-07-06T06:03:35;100625.44;;;21.50;56.14
30730;BME280;17476;48.458;7.928;2022-07-06T06:06:02;100626.16;;;21.64;55.27
30730;BME280;17476;48.458;7.928;2022-07-06T06:08:28;100631.69;;;21.80;54.44
30730;BME280;17476;48.458;7.928;2022-07-06T06:10:54;100634.97;;;21.83;54.24
30730;BME280;17476;48.458;7.928;2022-07-06T06:13:20;100631.88;;;21.86;54.25
30730;BME280;17476;48.458;7.928;2022-07-06T06:15:46;100625.44;;;21.93;53.52
30730;BME280;17476;48.458;7.928;2022-07-06T06:18:12;100638.69;;;22.00;53.65
30730;BME280;17476;48.458;7.928;2022-07-06T06:20:38;100626.09;;;22.07;53.21
30730;BME280;17476;48.458;7.928;2022-07-06T06:23:04;100627.41;;;22.23;52.86
30730;BME280;17476;48.458;7.928;2022-07-06T06:25:36;100631.38;;;22.32;51.98
30730;BME280;17476;48.458;7.928;2022-07-06T06:28:05;100628.78;;;22.44;51.80
30730;BME280;17476;48.458;7.928;2022-07-06T06:30:40;100628.81;;;22.55;51.41
30730;BME280;17476;48.458;7.928;2022-07-06T06:33:18;100630.50;;;22.68;51.10
30730;BME280;17476;48.458;7.928;2022-07-06T06:35:48;100626.59;;;22.82;50.84
30730;BME280;17476;48.458;7.928;2022-07-06T06:38:16;100629.66;;;22.86;50.41
30730;BME280;17476;48.458;7.928;2022-07-06T06:40:42;100634.34;;;23.02;49.44
30730;BME280;17476;48.458;7.928;2022-07-06T06:43:08;100631.94;;;23.12;49.67
30730;BME280;17476;48.458;7.928;2022-07-06T06:45:34;100630.22;;;23.41;48.71
30730;BME280;17476;48.458;7.928;2022-07-06T06:48:00;100635.03;;;23.63;49.02
30730;BME280;17476;48.458;7.928;2022-07-06T06:50:26;100624.47;;;23.91;47.79
30730;BME280;17476;48.458;7.928;2022-07-06T06:52:52;100631.88;;;24.01;46.67
30730;BME280;17476;48.458;7.928;2022-07-06T06:55:18;100634.84;;;24.16;46.45
30730;BME280;17476;48.458;7.928;2022-07-06T06:57:45;100634.16;;;24.21;46.30
30730;BME280;17476;48.458;7.928;2022-07-06T07:00:12;100635.16;;;24.32;46.49
30730;BME280;17476;48.458;7.928;2022-07-06T07:02:38;100636.56;;;24.46;45.14
30730;BME280;17476;48.458;7.928;2022-07-06T07:05:05;100625.44;;;24.66;45.02
30730;BME280;17476;48.458;7.928;2022-07-06T07:07:31;100626.75;;;24.80;45.03
30730;BME280;17476;48.458;7.928;2022-07-06T07:09:57;100623.00;;;25.10;44.29
30730;BME280;17476;48.458;7.928;2022-07-06T07:12:23;100628.78;;;25.35;43.90
30730;BME280;17476;48.458;7.928;2022-07-06T07:14:49;100632.31;;;25.57;43.09
30730;BME280;17476;48.458;7.928;2022-07-06T07:17:16;100630.44;;;25.58;42.00
30730;BME280;17476;48.458;7.928;2022-07-06T07:19:42;100632.31;;;25.57;42.59
30730;BME280;17476;48.458;7.928;2022-07-06T07:22:08;100640.19;;;25.64;42.13
30730;BME280;17476;48.458;7.928;2022-07-06T07:24:34;100635.25;;;25.73;42.18
30730;BME280;17476;48.458;7.928;2022-07-06T07:27:00;100633.44;;;25.95;41.94
30730;BME280;17476;48.458;7.928;2022-07-06T07:29:26;100626.06;;;26.07;41.61
30730;BME280;17476;48.458;7.928;2022-07-06T07:31:51;100634.94;;;26.30;41.04
30730;BME280;17476;48.458;7.928;2022-07-06T07:34:17;100636.19;;;26.44;40.59
30730;BME280;17476;48.458;7.928;2022-07-06T07:36:43;100632.13;;;26.68;40.77
30730;BME280;17476;48.458;7.928;2022-07-06T07:39:09;100629.75;;;26.99;40.29
30730;BME280;17476;48.458;7.928;2022-07-06T07:41:35;100630.00;;;27.25;39.95
30730;BME280;17476;48.458;7.928;2022-07-06T07:44:01;100629.97;;;27.62;38.47
30730;BME280;17476;48.458;7.928;2022-07-06T07:46:27;100631.03;;;27.61;38.74
30730;BME280;17476;48.458;7.928;2022-07-06T07:48:53;100624.91;;;27.65;38.72
30730;BME280;17476;48.458;7.928;2022-07-06T07:51:18;100622.88;;;27.83;37.94
30730;BME280;17476;48.458;7.928;2022-07-06T07:53:45;100627.50;;;27.97;37.98
30730;BME280;17476;48.458;7.928;2022-07-06T07:56:11;100626.81;;;28.27;37.91
30730;BME280;17476;48.458;7.928;2022-07-06T07:58:37;100621.00;;;28.46;36.59
30730;BME280;17476;48.458;7.928;2022-07-06T08:01:04;100625.31;;;28.57;36.29
30730;BME280;17476;48.458;7.928;2022-07-06T08:03:33;100624.03;;;28.90;36.74
30730;BME280;17476;48.458;7.928;2022-07-06T08:05:59;100627.03;;;29.14;35.87
30730;BME280;17476;48.458;7.928;2022-07-06T08:08:25;100626.47;;;29.37;35.88
30730;BME280;17476;48.458;7.928;2022-07-06T08:10:53;100616.75;;;29.52;35.10
30730;BME280;17476;48.458;7.928;2022-07-06T08:13:19;100624.78;;;29.72;35.09
30730;BME280;17476;48.458;7.928;2022-07-06T08:15:45;100626.91;;;29.96;34.88
30730;BME280;17476;48.458;7.928;2022-07-06T08:18:11;100616.22;;;30.35;33.99
30730;BME280;17476;48.458;7.928;2022-07-06T08:20:37;100615.81;;;30.57;34.05
30730;BME280;17476;48.458;7.928;2022-07-06T08:23:03;100625.38;;;30.83;34.23
30730;BME280;17476;48.458;7.928;2022-07-06T08:25:31;100622.41;;;31.14;33.04
30730;BME280;17476;48.458;7.928;2022-07-06T08:27:57;100621.88;;;31.17;33.23
30730;BME280;17476;48.458;7.928;2022-07-06T08:30:23;100633.09;;;31.34;33.08
30730;BME280;17476;48.458;7.928;2022-07-06T08:32:49;100632.91;;;31.49;32.82
30730;BME280;17476;48.458;7.928;2022-07-06T08:35:15;100633.25;;;31.72;31.87
30730;BME280;17476;48.458;7.928;2022-07-06T08:37:41;100629.28;;;31.88;31.74
30730;BME280;17476;48.458;7.928;2022-07-06T08:40:08;100631.53;;;32.05;31.93
30730;BME280;17476;48.458;7.928;2022-07-06T08:42:35;100621.44;;;32.29;31.65
30730;BME280;17476;48.458;7.928;2022-07-06T08:45:04;100629.38;;;32.26;31.02
30730;BME280;17476;48.458;7.928;2022-07-06T08:47:31;100632.56;;;32.33;30.76
30730;BME280;17476;48.458;7.928;2022-07-06T08:49:56;100626.31;;;32.51;31.16
30730;BME280;17476;48.458;7.928;2022-07-06T08:52:23;100625.00;;;32.49;30.61
30730;BME280;17476;48.458;7.928;2022-07-06T08:54:50;100625.38;;;32.80;30.97
30730;BME280;17476;48.458;7.928;2022-07-06T08:57:17;100623.19;;;33.14;30.71
30730;BME280;17476;48.458;7.928;2022-07-06T08:59:43;100631.31;;;33.47;30.31
30730;BME280;17476;48.458;7.928;2022-07-06T09:02:11;100628.31;;;33.62;29.59
30730;BME280;17476;48.458;7.928;2022-07-06T09:04:37;100621.59;;;33.74;29.42
30730;BME280;17476;48.458;7.928;2022-07-06T09:07:04;100630.53;;;33.74;29.51
30730;BME280;17476;48.458;7.928;2022-07-06T09:09:30;100628.25;;;33.95;28.78
30730;BME280;17476;48.458;7.928;2022-07-06T09:11:57;100626.63;;;33.94;28.72
30730;BME280;17476;48.458;7.928;2022-07-06T09:14:23;100633.41;;;34.19;29.14
30730;BME280;17476;48.458;7.928;2022-07-06T09:17:03;100630.19;;;34.31;28.98
30730;BME280;17476;48.458;7.928;2022-07-06T09:19:32;100627.47;;;34.67;28.69
30730;BME280;17476;48.458;7.928;2022-07-06T09:21:59;100624.66;;;34.94;28.21
30730;BME280;17476;48.458;7.928;2022-07-06T09:24:25;100636.25;;;34.64;28.70
30730;BME280;17476;48.458;7.928;2022-07-06T09:26:55;100645.13;;;34.92;27.92
30730;BME280;17476;48.458;7.928;2022-07-06T09:29:31;100642.81;;;35.08;28.58
30730;BME280;17476;48.458;7.928;2022-07-06T09:31:59;100637.09;;;35.40;27.28
30730;BME280;17476;48.458;7.928;2022-07-06T09:34:30;100645.19;;;35.54;27.87
30730;BME280;17476;48.458;7.928;2022-07-06T09:37:06;100645.66;;;35.56;27.67
30730;BME280;17476;48.458;7.928;2022-07-06T09:39:32;100643.38;;;35.49;27.37
30730;BME280;17476;48.458;7.928;2022-07-06T09:42:00;100649.09;;;35.70;27.34
30730;BME280;17476;48.458;7.928;2022-07-06T09:44:32;100649.25;;;35.74;26.81
30730;BME280;17476;48.458;7.928;2022-07-06T09:47:01;100655.03;;;35.72;27.92
30730;BME280;17476;48.458;7.928;2022-07-06T09:49:28;100655.19;;;35.76;26.79
30730;BME280;17476;48.458;7.928;2022-07-06T09:52:07;100647.63;;;35.64;27.48
30730;BME280;17476;48.458;7.928;2022-07-06T09:54:34;100660.09;;;35.57;27.74
30730;BME280;17476;48.458;7.928;2022-07-06T09:57:01;100662.41;;;35.80;27.37
30730;BME280;17476;48.458;7.928;2022-07-06T09:59:30;100664.00;;;36.21;27.37
30730;BME280;17476;48.458;7.928;2022-07-06T10:02:01;100667.72;;;35.86;27.01
30730;BME280;17476;48.458;7.928;2022-07-06T10:04:28;100669.41;;;36.04;27.30
30730;BME280;17476;48.458;7.928;2022-07-06T10:06:56;100669.16;;;36.31;26.85
30730;BME280;17476;48.458;7.928;2022-07-06T10:09:25;100669.19;;;36.49;26.77
30730;BME280;17476;48.458;7.928;2022-07-06T10:11:55;100669.53;;;36.73;26.27
30730;BME280;17476;48.458;7.928;2022-07-06T10:14:27;100658.13;;;36.97;25.53
30730;BME280;17476;48.458;7.928;2022-07-06T10:16:56;100663.88;;;37.04;25.48
30730;BME280;17476;48.458;7.928;2022-07-06T10:19:27;100656.09;;;37.50;25.53
30730;BME280;17476;48.458;7.928;2022-07-06T10:21:54;100667.56;;;37.34;25.49
30730;BME280;17476;48.458;7.928;2022-07-06T10:24:22;100671.38;;;37.25;25.39
30730;BME280;17476;48.458;7.928;2022-07-06T10:26:48;100668.13;;;37.49;25.30
30730;BME280;17476;48.458;7.928;2022-07-06T10:29:14;100671.16;;;37.56;25.08
30730;BME280;17476;48.458;7.928;2022-07-06T10:31:44;100669.44;;;37.89;24.63
30730;BME280;17476;48.458;7.928;2022-07-06T10:34:13;100655.72;;;37.98;24.42
30730;BME280;17476;48.458;7.928;2022-07-06T10:36:42;100654.50;;;37.87;24.45
30730;BME280;17476;48.458;7.928;2022-07-06T10:39:10;100646.78;;;37.89;24.90
30730;BME280;17476;48.458;7.928;2022-07-06T10:41:55;100646.53;;;37.64;24.89
30730;BME280;17476;48.458;7.928;2022-07-06T10:44:26;100653.16;;;37.93;24.95
30730;BME280;17476;48.458;7.928;2022-07-06T10:46:58;100654.91;;;37.59;24.41
30730;BME280;17476;48.458;7.928;2022-07-06T10:49:26;100651.13;;;37.43;24.60
30730;BME280;17476;48.458;7.928;2022-07-06T10:51:52;100643.31;;;37.71;24.87
30730;BME280;17476;48.458;7.928;2022-07-06T10:54:20;100639.59;;;37.76;24.49
30730;BME280;17476;48.458;7.928;2022-07-06T10:56:51;100651.19;;;37.34;24.31
30730;BME280;17476;48.458;7.928;2022-07-06T10:59:22;100646.53;;;37.17;25.22
30730;BME280;17476;48.458;7.928;2022-07-06T11:02:14;100661.34;;;36.90;25.22
30730;BME280;17476;48.458;7.928;2022-07-06T11:04:47;100648.19;;;36.41;25.74
30730;BME280;17476;48.458;7.928;2022-07-06T11:07:19;100648.09;;;36.06;26.44
30730;BME280;17476;48.458;7.928;2022-07-06T11:10:14;100640.44;;;36.34;26.41
30730;BME280;17476;48.458;7.928;2022-07-06T11:12:45;100639.34;;;36.70;25.87
30730;BME280;17476;48.458;7.928;2022-07-06T11:15:11;100640.31;;;36.91;25.95
30730;BME280;17476;48.458;7.928;2022-07-06T11:17:36;100635.91;;;37.25;25.02
30730;BME280;17476;48.458;7.928;2022-07-06T11:20:12;100637.22;;;37.65;24.37
30730;BME280;17476;48.458;7.928;2022-07-06T11:22:38;100636.91;;;37.67;24.16
30730;BME280;17476;48.458;7.928;2022-07-06T11:25:05;100632.66;;;37.49;24.62
30730;BME280;17476;48.458;7.928;2022-07-06T11:27:33;100642.81;;;37.22;24.71
30730;BME280;17476;48.458;7.928;2022-07-06T11:30:00;100634.38;;;36.98;24.81
30730;BME280;17476;48.458;7.928;2022-07-06T11:32:26;100631.84;;;36.93;24.90
30730;BME280;17476;48.458;7.928;2022-07-06T11:34:53;100628.47;;;36.44;24.92
30730;BME280;17476;48.458;7.928;2022-07-06T11:37:19;100625.44;;;35.88;26.00
30730;BME280;17476;48.458;7.928;2022-07-06T11:39:47;100625.34;;;36.02;26.20
30730;BME280;17476;48.458;7.928;2022-07-06T11:42:18;100626.84;;;36.25;25.87
30730;BME280;17476;48.458;7.928;2022-07-06T11:44:45;100620.28;;;36.44;25.43
30730;BME280;17476;48.458;7.928;2022-07-06T11:47:12;100623.34;;;36.59;25.22
30730;BME280;17476;48.458;7.928;2022-07-06T11:49:40;100621.41;;;36.86;24.25
30730;BME280;17476;48.458;7.928;2022-07-06T11:52:15;100622.75;;;37.27;25.30
30730;BME280;17476;48.458;7.928;2022-07-06T11:54:41;100609.00;;;37.61;24.66
30730;BME280;17476;48.458;7.928;2022-07-06T11:57:10;100597.69;;;37.71;24.76
30730;BME280;17476;48.458;7.928;2022-07-06T11:59:39;100600.75;;;38.00;24.08
30730;BME280;17476;48.458;7.928;2022-07-06T12:02:08;100599.31;;;38.44;24.42
30730;BME280;17476;48.458;7.928;2022-07-06T12:04:38;100604.19;;;38.38;23.71
30730;BME280;17476;48.458;7.928;2022-07-06T12:07:11;100618.97;;;38.16;23.71
30730;BME280;17476;48.458;7.928;2022-07-06T12:09:40;100612.97;;;38.02;23.76
30730;BME280;17476;48.458;7.928;2022-07-06T12:12:08;100609.38;;;38.31;23.13
30730;BME280;17476;48.458;7.928;2022-07-06T12:14:36;100602.75;;;38.53;23.04
30730;BME280;17476;48.458;7.928;2022-07-06T12:17:10;100598.78;;;38.71;23.55
30730;BME280;17476;48.458;7.928;2022-07-06T12:19:38;100599.41;;;38.89;22.86
30730;BME280;17476;48.458;7.928;2022-07-06T12:22:05;100607.00;;;38.84;23.21
30730;BME280;17476;48.458;7.928;2022-07-06T12:24:33;100595.31;;;39.08;22.90
30730;BME280;17476;48.458;7.928;2022-07-06T12:27:15;100594.81;;;39.39;22.60
30730;BME280;17476;48.458;7.928;2022-07-06T12:29:42;100599.94;;;39.52;22.17
30730;BME280;17476;48.458;7.928;2022-07-06T12:32:19;100594.25;;;39.57;21.84
30730;BME280;17476;48.458;7.928;2022-07-06T12:34:45;100595.75;;;39.43;22.32
30730;BME280;17476;48.458;7.928;2022-07-06T12:37:12;100597.06;;;39.49;21.32
30730;BME280;17476;48.458;7.928;2022-07-06T12:39:44;100604.50;;;39.48;22.33
30730;BME280;17476;48.458;7.928;2022-07-06T12:42:16;100601.66;;;39.57;21.83
30730;BME280;17476;48.458;7.928;2022-07-06T12:44:46;100600.53;;;39.58;21.61
30730;BME280;17476;48.458;7.928;2022-07-06T12:47:12;100596.75;;;39.63;21.96
30730;BME280;17476;48.458;7.928;2022-07-06T12:49:42;100592.97;;;39.92;21.92
30730;BME280;17476;48.458;7.928;2022-07-06T12:52:11;100595.38;;;40.05;21.47